Time;durP1;ratioP1;P1;durP2;ratioP2;P2;SDS_P1;SDS_P2;PMS_P1;PMS_P2;Temp;Humidity;BMP_temperature;BMP_pressure;BME280_temperature;BME280_humidity;BME280_pressure;Samples;Min_cycle;Max_cycle;Signal;HPM_P1;HPM_P2
2021/06/13 00:00:15;;;;;;;5.07;2.42;;;;;;;19.74;47.82;100901.41;10464754;28;20045;-69
2021/06/13 00:05:17;;;;;;;5.07;2.65;;;;;;;19.57;47.79;100887.06;10457435;28;20551;-68
2021/06/13 00:10:20;;;;;;;6.65;2.20;;;;;;;19.58;48.40;100913.91;10460890;28;20045;-69
2021/06/13 00:15:25;;;;;;;4.43;1.98;;;;;;;19.57;48.65;100916.78;10464386;28;20072;-69
2021/06/13 00:20:28;;;;;;;5.10;2.88;;;;;;;19.52;49.33;100917.28;10456077;28;20060;-71
2021/06/13 00:25:30;;;;;;;4.35;2.33;;;;;;;19.45;49.48;100924.34;10462242;28;20060;-69
2021/06/13 00:30:32;;;;;;;5.00;2.25;;;;;;;19.21;50.27;100922.41;10468733;28;20079;-69
2021/06/13 00:35:34;;;;;;;3.95;2.28;;;;;;;19.17;49.95;100942.63;10469857;28;20072;-69
2021/06/13 00:40:36;;;;;;;5.63;2.50;;;;;;;19.20;49.34;100936.91;10463772;28;20140;-70
2021/06/13 00:45:37;;;;;;;4.53;2.03;;;;;;;19.16;50.29;100931.00;10472940;28;20129;-70
2021/06/13 00:50:53;;;;;;;5.95;2.38;;;;;;;19.19;49.97;100948.75;10474663;28;20048;-71
2021/06/13 00:55:56;;;;;;;4.03;2.13;;;;;;;19.02;50.53;100943.28;10479219;28;20045;-69
2021/06/13 01:00:58;;;;;;;7.78;2.25;;;;;;;19.03;50.20;100955.75;10504497;28;20048;-72
2021/06/13 01:05:59;;;;;;;5.38;2.53;;;;;;;18.90;50.51;100960.75;10466967;28;20465;-71
2021/06/13 01:11:05;;;;;;;5.40;3.08;;;;;;;18.92;51.43;100956.03;10467331;28;20072;-68
2021/06/13 01:16:12;;;;;;;4.15;2.15;;;;;;;18.90;50.89;100964.28;10471845;28;20048;-67
2021/06/13 01:21:21;;;;;;;4.45;2.35;;;;;;;18.70;51.41;100954.69;10448559;28;20469;-69
2021/06/13 01:26:54;;;;;;;2.30;1.88;;;;;;;18.70;51.49;100947.44;10461863;28;20569;-70
2021/06/13 01:31:59;;;;;;;5.13;2.53;;;;;;;18.80;51.80;100965.38;10460157;28;20071;-70
2021/06/13 01:37:08;;;;;;;5.22;2.22;;;;;;;18.64;52.15;100953.47;10466180;28;20081;-71
2021/06/13 01:42:11;;;;;;;4.72;2.33;;;;;;;18.49;51.52;100928.13;10472054;28;20566;-69
2021/06/13 01:47:14;;;;;;;4.10;2.67;;;;;;;18.60;52.33;100962.91;10486899;28;20051;-68
2021/06/13 01:52:16;;;;;;;4.25;2.28;;;;;;;18.54;51.96;100966.25;10469423;28;20124;-68
2021/06/13 01:57:18;;;;;;;3.45;2.47;;;;;;;18.48;51.83;100953.38;10475040;28;20119;-68
2021/06/13 02:02:20;;;;;;;6.88;2.55;;;;;;;18.53;51.68;100965.38;10469274;28;20079;-68
2021/06/13 02:07:24;;;;;;;6.05;2.03;;;;;;;18.53;51.70;100970.78;10475725;28;20131;-69
2021/06/13 02:12:26;;;;;;;6.25;2.63;;;;;;;18.47;51.94;100967.88;10469027;28;20072;-70
2021/06/13 02:17:27;;;;;;;4.93;2.40;;;;;;;18.30;51.51;100974.97;10468559;28;20059;-69
2021/06/13 02:22:30;;;;;;;5.55;2.63;;;;;;;18.16;52.05;100973.69;10468975;28;20142;-70
2021/06/13 02:27:33;;;;;;;3.47;2.30;;;;;;;18.08;52.16;100984.41;10466698;28;20071;-68
2021/06/13 02:32:35;;;;;;;3.65;2.25;;;;;;;17.92;52.41;100990.50;10467795;28;20079;-69
2021/06/13 02:37:39;;;;;;;2.47;2.00;;;;;;;17.81;52.63;100991.53;10482190;28;20189;-69
2021/06/13 02:42:40;;;;;;;4.78;2.47;;;;;;;17.66;52.52;100988.50;10461232;28;20135;-70
2021/06/13 02:47:43;;;;;;;3.10;2.30;;;;;;;17.53;52.65;100985.34;10470420;28;20052;-68
2021/06/13 02:52:57;;;;;;;4.30;2.60;;;;;;;17.53;52.90;101010.41;10459937;28;20070;-69
2021/06/13 02:58:01;;;;;;;;;;;;;;;17.46;53.18;101022.78;10459410;28;20064;-68
2021/06/13 03:03:03;;;;;;;3.97;2.20;;;;;;;17.42;53.16;101021.38;10468101;28;19966;-69
2021/06/13 03:08:05;;;;;;;5.70;2.40;;;;;;;17.40;53.00;101018.84;10467215;28;20048;-69
2021/06/13 03:13:07;;;;;;;3.50;2.47;;;;;;;17.36;53.17;101011.22;10468441;28;20143;-68
2021/06/13 03:18:10;;;;;;;5.88;2.10;;;;;;;17.24;53.08;101010.56;10466655;28;20625;-68
2021/06/13 03:23:13;;;;;;;6.75;2.53;;;;;;;17.18;53.15;101017.38;10463573;28;20045;-68
2021/06/13 03:28:19;;;;;;;3.13;2.42;;;;;;;17.08;53.39;101025.50;10460326;28;20077;-68
2021/06/13 03:33:23;;;;;;;5.80;2.22;;;;;;;17.04;53.59;101024.09;10465434;28;20083;-69
2021/06/13 03:38:29;;;;;;;5.70;2.63;;;;;;;16.96;53.66;101022.16;10487318;28;20124;-69
2021/06/13 03:43:30;;;;;;;3.95;2.58;;;;;;;16.95;53.74;101025.81;10478945;28;20079;-69
2021/06/13 03:48:33;;;;;;;4.68;2.53;;;;;;;16.85;53.96;101018.75;10470338;28;20053;-68
2021/06/13 03:53:46;;;;;;;3.85;2.20;;;;;;;16.78;54.09;101013.09;10465371;28;20140;-68
2021/06/13 03:58:49;;;;;;;3.95;2.53;;;;;;;16.68;54.21;101010.44;10463737;28;20060;-68
2021/06/13 04:03:53;;;;;;;3.35;2.30;;;;;;;16.89;54.07;101034.47;10464965;28;20694;-69
2021/06/13 04:08:55;;;;;;;4.40;2.63;;;;;;;16.79;53.47;101033.63;10489573;28;20054;-69
2021/06/13 04:13:57;;;;;;;5.47;2.55;;;;;;;16.71;54.31;101030.78;10465603;28;20044;-69
2021/06/13 04:19:01;;;;;;;5.38;2.40;;;;;;;16.83;54.24;101048.47;10457831;28;20120;-68
2021/06/13 04:24:02;;;;;;;4.63;2.47;;;;;;;16.68;54.43;101060.66;10462132;28;20119;-69
2021/06/13 04:29:05;;;;;;;3.50;2.67;;;;;;;16.75;54.31;101072.53;10459820;28;20112;-70
2021/06/13 04:34:06;;;;;;;4.72;2.65;;;;;;;16.75;54.50;101083.28;10463082;28;20048;-69
2021/06/13 04:39:08;;;;;;;4.20;2.28;;;;;;;16.74;54.63;101087.81;10467259;28;20044;-69
2021/06/13 04:44:09;;;;;;;5.40;2.40;;;;;;;16.78;54.84;101105.38;10466717;28;20075;-69
2021/06/13 04:49:11;;;;;;;3.20;2.10;;;;;;;16.48;55.27;101060.66;10463677;28;20072;-68
2021/06/13 04:54:44;;;;;;;3.58;2.25;;;;;;;16.72;55.20;101111.31;10461209;28;20130;-68
2021/06/13 04:59:45;;;;;;;4.80;2.08;;;;;;;16.75;55.59;101118.22;10457413;28;20101;-69
2021/06/13 05:04:47;;;;;;;4.22;2.72;;;;;;;16.77;55.51;101102.81;10457681;28;20064;-68
2021/06/13 05:09:48;;;;;;;4.68;2.67;;;;;;;16.71;55.63;101103.38;10470156;28;20151;-69
2021/06/13 05:14:50;;;;;;;2.67;2.33;;;;;;;16.85;55.16;101126.31;10461860;28;20126;-68
2021/06/13 05:19:51;;;;;;;4.18;2.55;;;;;;;16.92;55.07;101114.84;10454430;28;20107;-68
2021/06/13 05:24:53;;;;;;;3.75;2.70;;;;;;;17.19;55.06;101137.47;10453421;28;20124;-69
2021/06/13 05:29:54;;;;;;;4.38;2.67;;;;;;;17.17;54.06;101130.50;10462102;28;20079;-68
2021/06/13 05:34:55;;;;;;;3.78;2.38;;;;;;;17.35;54.69;101160.22;10475884;28;20069;-68
2021/06/13 05:39:57;;;;;;;4.40;2.47;;;;;;;17.41;54.23;101159.63;10467018;28;20044;-69
2021/06/13 05:44:58;;;;;;;5.22;2.88;;;;;;;17.39;55.31;101172.38;10455962;28;20186;-71
2021/06/13 05:49:59;;;;;;;7.47;2.85;;;;;;;17.47;53.68;101170.66;10458552;28;20118;-69
2021/06/13 05:55:02;;;;;;;4.32;2.45;;;;;;;17.51;53.21;101187.38;10458947;28;20470;-69
2021/06/13 06:00:07;;;;;;;5.65;2.60;;;;;;;17.63;53.76;101191.56;10459404;28;20843;-69
2021/06/13 06:05:10;;;;;;;7.03;2.75;;;;;;;17.74;52.12;101187.00;10463328;28;20044;-68
2021/06/13 06:10:13;;;;;;;5.60;2.60;;;;;;;17.70;52.66;101193.66;10460151;28;20128;-69
2021/06/13 06:15:17;;;;;;;9.05;2.80;;;;;;;17.88;52.47;101199.13;10454309;28;20795;-68
2021/06/13 06:25:35;;;;;;;4.20;2.55;;;;;;;17.71;52.51;101215.06;10485240;23;22002;-67
2021/06/13 06:30:38;;;;;;;5.18;2.63;;;;;;;18.05;52.57;101232.56;10349420;28;20050;-68
2021/06/13 06:35:41;;;;;;;8.17;3.07;;;;;;;18.25;50.70;101222.53;10366661;28;20401;-68
2021/06/13 06:40:42;;;;;;;7.00;3.08;;;;;;;18.35;50.34;101231.41;10369364;28;20416;-68
2021/06/13 06:45:44;;;;;;;6.00;2.83;;;;;;;18.47;50.29;101237.44;10362576;28;20045;-68
2021/06/13 06:50:46;;;;;;;5.22;2.38;;;;;;;18.59;49.51;101241.63;10367351;28;20041;-68
2021/06/13 06:55:47;;;;;;;6.13;3.00;;;;;;;18.59;49.51;101235.38;10347032;28;20702;-68
2021/06/13 07:00:49;;;;;;;7.13;3.08;;;;;;;18.86;49.27;101253.38;10347076;28;20652;-68
2021/06/13 07:05:50;;;;;;;7.45;2.65;;;;;;;18.86;47.86;101258.78;10364836;28;20114;-68
2021/06/13 07:10:52;;;;;;;8.02;2.90;;;;;;;18.89;48.28;101236.91;10366296;28;20053;-68
2021/06/13 07:15:54;;;;;;;5.82;2.80;;;;;;;19.20;47.47;101249.97;10358542;28;20053;-69
2021/06/13 07:20:56;;;;;;;6.10;1.83;;;;;;;19.34;47.06;101241.31;10364318;28;20387;-69
2021/06/13 07:25:58;;;;;;;6.80;3.08;;;;;;;19.40;46.70;101247.94;10366785;28;20184;-69
2021/06/13 07:31:00;;;;;;;5.85;2.55;;;;;;;19.41;46.96;101252.31;10355790;28;20077;-68
2021/06/13 07:36:05;;;;;;;5.25;3.03;;;;;;;19.45;46.69;101248.31;10343480;28;20086;-69
2021/06/13 07:41:06;;;;;;;5.20;2.80;;;;;;;19.63;45.82;101232.06;10352631;28;20622;-69
2021/06/13 07:46:08;;;;;;;7.38;2.83;;;;;;;19.85;45.76;101249.63;10356674;28;20275;-67
2021/06/13 07:51:10;;;;;;;5.28;2.72;;;;;;;20.18;43.81;101257.06;10355236;28;20052;-67
2021/06/13 07:56:13;;;;;;;5.47;2.60;;;;;;;20.39;44.59;101256.63;10354019;28;20427;-68
2021/06/13 08:01:15;;;;;;;6.60;2.70;;;;;;;20.34;44.50;101270.63;10346532;28;20468;-68
2021/06/13 08:06:17;;;;;;;5.38;2.67;;;;;;;20.36;42.98;101265.91;10343981;28;20303;-66
2021/06/13 08:11:19;;;;;;;5.63;2.38;;;;;;;20.49;42.95;101269.00;10333392;28;20153;-67
2021/06/13 08:16:20;;;;;;;6.57;2.58;;;;;;;20.56;43.25;101284.56;10342405;28;20133;-67
2021/06/13 08:21:22;;;;;;;8.85;4.05;;;;;;;20.84;43.52;101277.91;10345398;28;20199;-67
2021/06/13 08:26:24;;;;;;;3.63;2.20;;;;;;;21.10;42.89;101262.56;10355291;28;20529;-68
2021/06/13 08:31:26;;;;;;;5.60;2.20;;;;;;;21.15;42.82;101261.03;10355816;28;20157;-68
2021/06/13 08:36:28;;;;;;;6.35;2.30;;;;;;;21.00;41.75;101254.59;10342290;28;20136;-68
2021/06/13 08:41:29;;;;;;;5.55;2.35;;;;;;;21.17;41.34;101259.00;10349810;28;20160;-67
2021/06/13 08:46:31;;;;;;;4.60;2.67;;;;;;;21.23;40.61;101264.75;10361763;28;20435;-66
2021/06/13 08:51:33;;;;;;;5.53;2.90;;;;;;;21.36;41.17;101265.94;10353170;28;20570;-67
2021/06/13 08:56:34;;;;;;;8.88;3.38;;;;;;;21.37;38.58;101266.78;10348238;28;20053;-67
2021/06/13 09:01:36;;;;;;;3.25;1.90;;;;;;;20.75;40.79;101272.66;10369550;28;20595;-66
2021/06/13 09:06:38;;;;;;;6.45;2.50;;;;;;;20.29;41.70;101245.94;10360687;28;20068;-67
2021/06/13 09:12:03;;;;;;;7.30;2.15;;;;;;;20.99;41.27;101261.03;10355839;28;20081;-68
2021/06/13 09:17:26;;;;;;;6.03;2.53;;;;;;;21.63;40.17;101257.66;10339501;28;20048;-68
2021/06/13 09:22:27;;;;;;;5.00;2.37;;;;;;;21.95;39.68;101255.88;10340129;28;20042;-66
2021/06/13 09:27:29;;;;;;;5.22;2.25;;;;;;;22.10;38.51;101270.41;10337064;28;20978;-66
2021/06/13 09:32:30;;;;;;;5.97;2.28;;;;;;;22.42;37.80;101255.06;10356667;28;20049;-67
2021/06/13 09:37:32;;;;;;;4.13;1.92;;;;;;;22.84;37.06;101261.09;10340790;28;20554;-67
2021/06/13 09:42:37;;;;;;;5.68;2.45;;;;;;;22.94;36.73;101250.84;10359786;28;20141;-66
2021/06/13 09:47:40;;;;;;;5.00;2.10;;;;;;;22.84;37.03;101261.94;10364324;28;20500;-66
2021/06/13 09:52:41;;;;;;;3.40;2.10;;;;;;;22.76;36.91;101251.13;10344915;28;20583;-66
2021/06/13 09:58:05;;;;;;;2.85;1.63;;;;;;;22.84;36.58;101261.94;10355914;28;20064;-68
2021/06/13 10:03:24;;;;;;;3.72;1.98;;;;;;;23.39;35.78;101256.44;10364296;28;20078;-67
2021/06/13 10:08:27;;;;;;;5.28;2.40;;;;;;;23.53;36.50;101254.78;10343887;28;20128;-67
2021/06/13 10:13:52;;;;;;;4.15;2.10;;;;;;;23.99;35.59;101244.63;10352393;28;20546;-67
2021/06/13 10:19:09;;;;;;;3.60;2.15;;;;;;;24.17;34.46;101241.53;10330534;28;20073;-68
2021/06/13 10:24:32;;;;;;;5.15;2.38;;;;;;;23.27;36.90;101242.47;10383093;28;20129;-69
2021/06/13 10:29:37;;;;;;;6.32;1.83;;;;;;;23.45;36.13;101239.41;10356593;28;20077;-68
2021/06/13 10:34:39;;;;;;;4.22;2.40;;;;;;;23.45;34.88;101242.13;10354046;28;20052;-66
2021/06/13 10:39:40;;;;;;;3.40;2.10;;;;;;;23.46;35.70;101224.78;10365532;28;20283;-66
2021/06/13 10:44:45;;;;;;;4.78;1.67;;;;;;;24.23;34.18;101239.94;10350023;28;20456;-67
2021/06/13 10:49:55;;;;;;;6.28;2.63;;;;;;;24.53;34.49;101231.72;10349890;28;20311;-67
2021/06/13 10:55:07;;;;;;;3.80;2.20;;;;;;;24.84;33.37;101216.97;10340691;28;20156;-68
2021/06/13 11:00:20;;;;;;;3.70;2.28;;;;;;;25.22;33.67;101230.28;10343768;28;20042;-67
2021/06/13 11:05:39;;;;;;;4.65;2.42;;;;;;;25.24;32.75;101212.72;10360308;28;20037;-68
2021/06/13 11:10:42;;;;;;;5.55;2.40;;;;;;;25.24;34.13;101229.06;10351467;28;20045;-67
2021/06/13 11:15:45;;;;;;;3.22;2.20;;;;;;;25.14;33.16;101223.09;10340615;28;20073;-67
2021/06/13 11:21:10;;;;;;;3.45;2.03;;;;;;;25.48;32.12;101223.41;10347330;28;20085;-67
2021/06/13 11:26:28;;;;;;;7.72;2.45;;;;;;;25.35;32.56;101214.09;10375497;28;20088;-68
2021/06/13 11:31:30;;;;;;;4.95;2.35;;;;;;;25.45;33.03;101219.19;10360107;28;20060;-66
2021/06/13 11:36:36;;;;;;;4.53;2.03;;;;;;;25.20;32.95;101210.59;10367697;28;20061;-67
2021/06/13 11:41:42;;;;;;;4.95;2.40;;;;;;;24.46;34.18;101206.28;10392573;28;20065;-68
2021/06/13 11:46:45;;;;;;;6.35;2.35;;;;;;;24.45;34.05;101201.88;10369524;28;20069;-67
2021/06/13 11:52:05;;;;;;;4.22;2.20;;;;;;;24.74;34.25;101183.78;10358138;28;21189;-67
2021/06/13 11:57:12;;;;;;;3.67;2.15;;;;;;;25.25;33.52;101199.94;10361716;28;20060;-67
2021/06/13 12:02:18;;;;;;;8.52;2.53;;;;;;;25.46;32.81;101199.09;10362466;28;20231;-67
2021/06/13 12:07:22;;;;;;;4.45;2.40;;;;;;;25.32;33.79;101200.84;10360989;28;20077;-68
2021/06/13 12:12:23;;;;;;;4.95;2.35;;;;;;;24.92;33.77;101196.94;10357101;28;20131;-67
2021/06/13 12:17:26;;;;;;;5.05;2.97;;;;;;;25.00;33.23;101194.91;10355359;28;20128;-67
2021/06/13 12:27:32;;;;;;;3.67;2.00;;;;;;;24.64;34.56;101187.66;10362034;28;20587;-68
2021/06/13 12:32:35;;;;;;;3.80;2.15;;;;;;;25.13;33.57;101185.16;10357685;28;20046;-67
2021/06/13 12:37:39;;;;;;;4.78;2.20;;;;;;;25.47;33.58;101169.94;10356604;28;20120;-67
2021/06/13 12:42:45;;;;;;;3.40;1.88;;;;;;;25.43;32.76;101164.03;10345867;28;20628;-68
2021/06/13 12:47:53;;;;;;;4.18;2.13;;;;;;;25.46;32.50;101157.34;10358606;28;20586;-68
2021/06/13 12:52:57;;;;;;;3.20;2.25;;;;;;;25.45;33.10;101148.34;10353624;28;20037;-68
2021/06/13 12:57:58;;;;;;;3.80;2.22;;;;;;;25.42;32.46;101137.84;10343841;28;20076;-68
2021/06/13 13:03:13;;;;;;;3.70;1.53;;;;;;;25.51;32.38;101143.97;10361497;28;20046;-67
2021/06/13 13:08:23;;;;;;;3.88;2.20;;;;;;;25.39;31.98;101144.53;10362231;28;20073;-68
2021/06/13 13:13:33;;;;;;;3.88;2.40;;;;;;;25.39;32.20;101149.97;10360482;28;20096;-68
2021/06/13 13:18:39;;;;;;;3.95;2.17;;;;;;;25.41;32.87;101147.88;10365028;28;20463;-68
2021/06/13 13:23:43;;;;;;;3.58;2.15;;;;;;;25.48;32.62;101147.09;10354337;28;20042;-68
2021/06/13 13:28:50;;;;;;;4.72;1.77;;;;;;;25.47;32.40;101157.16;10347560;28;20135;-68
2021/06/13 13:33:55;;;;;;;3.10;1.98;;;;;;;25.29;32.30;101143.16;10355062;28;20140;-67
2021/06/13 13:38:57;;;;;;;4.43;1.80;;;;;;;25.14;32.76;101146.00;10348248;28;20515;-67
2021/06/13 13:44:06;;;;;;;5.35;2.28;;;;;;;25.11;31.65;101146.41;10358135;28;20688;-67
2021/06/13 13:49:10;;;;;;;4.60;1.95;;;;;;;25.08;32.29;101135.91;10354681;28;20141;-67
2021/06/13 13:54:28;;;;;;;2.60;1.60;;;;;;;25.10;31.29;101140.13;10353687;28;20260;-67
2021/06/13 13:59:31;;;;;;;5.47;2.17;;;;;;;24.86;32.09;101127.75;10366853;28;20132;-68
2021/06/13 14:04:35;;;;;;;5.72;2.05;;;;;;;24.92;32.65;101132.44;10359749;28;20084;-67
2021/06/13 14:09:39;;;;;;;7.90;2.80;;;;;;;24.63;32.38;101085.28;10363482;28;20360;-68
2021/06/13 14:14:41;;;;;;;4.75;1.60;;;;;;;24.67;32.09;101113.78;10348147;28;20568;-68
2021/06/13 14:19:42;;;;;;;4.85;2.45;;;;;;;24.63;32.79;101109.75;10372039;28;20056;-68
2021/06/13 14:24:44;;;;;;;6.50;2.17;;;;;;;24.49;33.26;101086.19;10368889;28;20537;-66
2021/06/13 14:29:45;;;;;;;3.63;1.90;;;;;;;24.33;34.14;101085.38;10370867;28;20084;-67
2021/06/13 14:34:46;;;;;;;4.63;2.20;;;;;;;24.46;33.66;101100.16;10369749;28;20144;-67
2021/06/13 14:39:54;;;;;;;3.78;2.67;;;;;;;24.31;33.77;101092.91;10358096;28;20129;-69
2021/06/13 14:44:56;;;;;;;4.60;2.50;;;;;;;24.18;34.33;101092.75;10360255;28;20438;-66
2021/06/13 14:49:57;;;;;;;4.45;2.22;;;;;;;24.34;34.05;101086.25;10355442;28;20202;-66
2021/06/13 14:54:58;;;;;;;3.78;2.35;;;;;;;24.23;33.95;101068.56;10364028;28;20124;-69
2021/06/13 15:00:00;;;;;;;4.88;1.83;;;;;;;24.29;35.14;101072.38;10351918;28;20082;-67
2021/06/13 15:10:12;;;;;;;6.55;2.30;;;;;;;24.14;34.22;101069.69;10296027;28;20171;-73
2021/06/13 15:15:14;;;;;;;3.58;2.08;;;;;;;24.12;33.90;101075.34;10307050;28;20086;-72
2021/06/13 15:20:17;;;;;;;6.78;2.28;;;;;;;24.14;33.53;101065.13;10284825;28;20113;-71
2021/06/13 15:25:18;;;;;;;3.10;2.15;;;;;;;24.13;33.83;101063.44;10292862;28;20054;-72
2021/06/13 15:30:20;;;;;;;4.65;2.22;;;;;;;24.13;33.65;101062.59;10285497;28;20129;-71
2021/06/13 15:35:23;;;;;;;3.50;2.10;;;;;;;24.15;33.71;101055.91;10290108;28;20512;-71
2021/06/13 15:40:25;;;;;;;4.30;2.15;;;;;;;24.13;33.76;101058.00;10292396;28;20121;-72
2021/06/13 15:45:26;;;;;;;3.88;1.77;;;;;;;24.14;33.63;101047.94;10286507;28;20054;-72
2021/06/13 15:50:28;;;;;;;4.13;1.58;;;;;;;24.07;33.72;101052.50;10281864;28;20054;-72
2021/06/13 15:55:37;;;;;;;3.25;2.10;;;;;;;24.02;33.61;101049.50;10295856;28;20739;-72
2021/06/13 16:00:39;;;;;;;4.43;2.17;;;;;;;24.03;34.06;101035.72;10295783;28;20054;-70
2021/06/13 16:05:43;;;;;;;3.00;2.03;;;;;;;24.09;34.07;101034.09;10288938;28;20058;-72
2021/06/13 16:10:45;;;;;;;3.28;2.13;;;;;;;24.06;33.99;101034.50;10292328;28;20050;-71
2021/06/13 16:15:46;;;;;;;3.70;2.38;;;;;;;24.01;33.58;101021.47;10296706;28;20057;-73
2021/06/13 16:20:48;;;;;;;3.03;1.92;;;;;;;24.06;34.32;101026.31;10283721;28;20047;-70
2021/06/13 16:25:49;;;;;;;5.38;2.53;;;;;;;24.10;34.02;101033.06;10298075;28;20085;-74
2021/06/13 16:30:51;;;;;;;4.40;2.60;;;;;;;24.07;34.29;101036.19;10295641;28;20567;-71
2021/06/13 16:35:55;;;;;;;5.13;2.78;;;;;;;23.97;33.77;101026.44;10295931;28;20182;-69
2021/06/13 16:40:56;;;;;;;4.32;1.98;;;;;;;23.96;34.44;101019.34;10293669;28;20201;-71
2021/06/13 16:45:58;;;;;;;3.90;2.17;;;;;;;24.02;34.51;101017.72;10292296;28;20520;-68
2021/06/13 16:50:59;;;;;;;3.65;2.25;;;;;;;24.04;34.81;101020.25;10299550;28;20050;-71
2021/06/13 16:56:01;;;;;;;3.42;2.28;;;;;;;24.03;34.40;101024.84;10297266;28;20793;-70
2021/06/13 17:01:02;;;;;;;4.25;2.33;;;;;;;23.97;34.00;101012.84;10292132;28;20050;-71
2021/06/13 17:06:05;;;;;;;5.38;2.72;;;;;;;23.90;34.70;101014.69;10293313;28;20117;-74
2021/06/13 17:11:06;;;;;;;5.35;2.13;;;;;;;23.91;34.46;101010.91;10281856;28;20053;-72
2021/06/13 17:16:08;;;;;;;3.53;2.03;;;;;;;23.82;34.18;101023.78;10294352;28;20444;-71
2021/06/13 17:21:09;;;;;;;3.65;2.20;;;;;;;23.78;34.13;101021.59;10293520;28;20057;-72
2021/06/13 17:26:12;;;;;;;3.42;1.98;;;;;;;23.76;34.69;101023.69;10295831;28;20197;-71
2021/06/13 17:31:15;;;;;;;4.07;2.20;;;;;;;23.65;34.47;101016.88;10270921;28;20510;-70
2021/06/13 17:36:17;;;;;;;3.70;3.08;;;;;;;23.61;34.25;101016.41;10282375;28;20069;-69
2021/06/13 17:41:35;;;;;;;4.85;2.88;;;;;;;23.52;34.95;101022.16;10295720;28;20546;-70
2021/06/13 17:46:36;;;;;;;5.00;2.30;;;;;;;23.46;35.34;101019.16;10294592;28;20188;-70
2021/06/13 17:51:38;;;;;;;4.05;2.47;;;;;;;23.45;35.44;101011.22;10287008;28;20439;-70
2021/06/13 17:56:40;;;;;;;3.47;2.05;;;;;;;23.39;36.01;101009.22;10288173;28;20138;-69
2021/06/13 18:01:41;;;;;;;4.65;2.25;;;;;;;23.37;36.38;101014.00;10289633;28;20069;-70
2021/06/13 18:06:44;;;;;;;5.18;2.38;;;;;;;23.28;35.72;101016.84;10292389;28;20456;-70
2021/06/13 18:11:45;;;;;;;4.00;2.10;;;;;;;23.26;36.37;101018.91;10295594;28;20126;-70
2021/06/13 18:16:47;;;;;;;4.32;2.10;;;;;;;23.22;36.49;101012.16;10291465;28;20057;-70
2021/06/13 18:21:49;;;;;;;3.55;2.63;;;;;;;23.15;36.35;101013.09;10299921;28;20080;-68
2021/06/13 18:26:50;;;;;;;7.78;2.85;;;;;;;23.10;36.65;101017.25;10290152;28;20057;-69
2021/06/13 18:31:52;;;;;;;4.75;2.58;;;;;;;23.08;37.18;101010.25;10296158;28;20042;-73
2021/06/13 18:36:54;;;;;;;5.30;2.40;;;;;;;22.98;38.16;100999.69;10300235;28;20137;-75
2021/06/13 18:41:56;;;;;;;5.03;2.33;;;;;;;22.92;37.27;101001.28;10303761;28;20722;-73
2021/06/13 18:46:59;;;;;;;5.18;2.60;;;;;;;22.82;37.31;100999.84;10304403;28;20057;-73
2021/06/13 18:52:00;;;;;;;;;;;;;;;22.78;37.67;101005.66;10303734;28;20061;-74
2021/06/13 18:57:02;;;;;;;4.65;3.00;;;;;;;22.70;37.52;100996.75;10297305;28;20008;-72
2021/06/13 19:02:04;;;;;;;4.07;1.90;;;;;;;22.65;38.30;100999.19;10299931;28;20064;-72
2021/06/13 19:07:06;;;;;;;4.82;2.35;;;;;;;22.55;38.50;100997.59;10299093;28;20057;-71
2021/06/13 19:12:08;;;;;;;3.83;2.78;;;;;;;22.49;38.43;100998.31;10310614;28;20108;-72
2021/06/13 19:17:12;;;;;;;4.45;2.88;;;;;;;22.40;39.03;100988.59;10300151;28;21371;-72
2021/06/13 19:22:13;;;;;;;4.93;2.30;;;;;;;22.32;39.43;100985.94;10302949;28;20053;-72
2021/06/13 19:27:15;;;;;;;4.40;2.55;;;;;;;22.21;38.81;100982.59;10299232;28;20137;-70
2021/06/13 19:32:16;;;;;;;5.78;3.05;;;;;;;22.13;39.69;100987.25;10298349;28;20050;-72
2021/06/13 19:37:20;;;;;;;5.15;3.13;;;;;;;22.09;40.62;100991.34;10298783;28;20133;-69
2021/06/13 19:42:22;;;;;;;4.32;2.45;;;;;;;22.01;40.11;100984.97;10292748;28;20474;-69
2021/06/13 19:47:23;;;;;;;4.80;3.20;;;;;;;21.96;41.23;100986.53;10299192;28;20713;-69
2021/06/13 19:52:25;;;;;;;3.78;2.97;;;;;;;21.88;40.18;100993.69;10292372;28;20074;-68
2021/06/13 19:57:32;;;;;;;4.78;3.08;;;;;;;21.84;41.31;100991.53;10297307;28;20112;-69
2021/06/13 20:02:33;;;;;;;3.45;3.05;;;;;;;21.78;41.45;100993.06;10304887;28;20058;-69
2021/06/13 20:07:36;;;;;;;4.50;3.00;;;;;;;21.68;41.71;100987.06;10282996;28;20050;-68
2021/06/13 20:12:39;;;;;;;5.07;2.90;;;;;;;21.65;41.87;100992.84;10296965;28;20408;-71
2021/06/13 20:17:43;;;;;;;6.20;3.78;;;;;;;21.60;42.16;101001.47;10297274;28;20888;-69
2021/06/13 20:22:45;;;;;;;6.97;3.63;;;;;;;21.57;42.21;100998.28;10294652;28;20120;-68
2021/06/13 20:27:46;;;;;;;4.88;3.03;;;;;;;21.49;42.58;100994.56;10295793;28;21020;-71
2021/06/13 20:32:48;;;;;;;4.47;3.28;;;;;;;21.45;41.71;101004.09;10298712;28;20054;-68
2021/06/13 20:37:50;;;;;;;5.68;3.25;;;;;;;21.36;41.36;100997.88;10294042;28;20551;-71
2021/06/13 20:42:52;;;;;;;13.48;9.95;;;;;;;21.28;41.27;100992.47;10295320;28;20560;-70
2021/06/13 20:47:54;;;;;;;5.40;3.05;;;;;;;21.24;41.82;100996.53;10300520;28;20157;-70
2021/06/13 20:52:56;;;;;;;3.23;2.43;;;;;;;21.22;42.03;100997.75;10294922;28;20046;-72
2021/06/13 20:57:59;;;;;;;5.85;3.17;;;;;;;21.10;42.11;100989.16;10294792;28;20066;-67
2021/06/13 21:03:01;;;;;;;5.03;3.27;;;;;;;21.06;42.00;100994.06;10296065;28;20038;-72
2021/06/13 21:08:02;;;;;;;5.65;2.97;;;;;;;21.02;42.26;101004.41;10285777;28;20128;-67
2021/06/13 21:13:05;;;;;;;4.97;2.73;;;;;;;20.98;42.09;101003.06;10305010;28;20054;-69
2021/06/13 21:18:07;;;;;;;4.38;2.83;;;;;;;20.91;41.57;100995.81;10290573;28;20051;-69
2021/06/13 21:23:10;;;;;;;3.47;2.53;;;;;;;20.84;41.68;100995.69;10276965;28;20050;-70
2021/06/13 21:28:12;;;;;;;5.00;2.60;;;;;;;20.81;41.66;101001.44;10291997;28;20133;-70
2021/06/13 21:33:13;;;;;;;4.97;2.67;;;;;;;20.75;41.57;100994.03;10288949;28;20497;-68
2021/06/13 21:38:15;;;;;;;5.53;2.67;;;;;;;20.67;41.19;100997.56;10292660;28;20117;-67
2021/06/13 21:43:16;;;;;;;4.97;2.80;;;;;;;20.57;41.38;100997.72;10285933;28;20120;-70
2021/06/13 21:48:17;;;;;;;3.83;2.83;;;;;;;20.55;41.81;101001.59;10296788;28;20392;-69
2021/06/13 21:53:19;;;;;;;3.70;2.35;;;;;;;20.48;42.49;101001.47;10292029;28;20094;-69
2021/06/13 21:58:20;;;;;;;5.45;2.97;;;;;;;20.41;42.98;100995.88;10271927;28;20468;-68
2021/06/13 22:03:22;;;;;;;4.65;2.90;;;;;;;20.31;43.09;100982.53;10288353;28;20050;-70
2021/06/13 22:08:23;;;;;;;6.00;2.75;;;;;;;20.31;43.25;100993.34;10284558;28;20050;-70
2021/06/13 22:13:25;;;;;;;3.83;2.92;;;;;;;20.28;43.92;101000.94;10311598;28;20038;-71
2021/06/13 22:18:27;;;;;;;4.30;2.70;;;;;;;20.24;44.48;101002.31;10305349;28;20161;-67
2021/06/13 22:23:28;;;;;;;7.80;3.20;;;;;;;20.17;44.38;100985.06;10302556;28;20070;-69
2021/06/13 22:28:30;;;;;;;5.55;2.95;;;;;;;20.18;44.75;100994.88;10304861;28;20110;-69
2021/06/13 22:33:32;;;;;;;6.28;3.10;;;;;;;20.11;44.67;100995.53;10304357;28;20101;-68
2021/06/13 22:38:34;;;;;;;3.38;2.60;;;;;;;20.06;45.02;100980.84;10299595;28;20051;-69
2021/06/13 22:43:36;;;;;;;3.80;2.45;;;;;;;20.04;45.90;100994.53;10296265;28;20186;-68
2021/06/13 22:48:37;;;;;;;4.20;2.53;;;;;;;19.95;46.17;100996.38;10304176;28;20086;-70
2021/06/13 22:53:39;;;;;;;4.22;2.90;;;;;;;19.86;46.59;100986.59;10303893;28;20105;-69
2021/06/13 22:58:40;;;;;;;5.38;3.25;;;;;;;19.82;46.86;100987.91;10299349;28;20524;-71
2021/06/13 23:03:42;;;;;;;5.97;2.45;;;;;;;19.74;46.72;100977.91;10296636;28;20409;-68
2021/06/13 23:08:43;;;;;;;5.13;2.63;;;;;;;19.67;46.91;100966.06;10305818;28;20078;-69
2021/06/13 23:13:45;;;;;;;5.32;3.47;;;;;;;19.63;46.89;100975.50;10300747;28;20131;-70
2021/06/13 23:18:49;;;;;;;4.53;2.72;;;;;;;19.35;46.91;100946.09;10382760;23;20044;-75
2021/06/13 23:23:51;;;;;;;3.05;2.35;;;;;;;19.45;47.11;100970.25;10425643;28;20063;-75
2021/06/13 23:28:52;;;;;;;4.45;2.65;;;;;;;19.41;47.03;100971.56;10395964;28;20167;-76